»·PEaware :: UAL842 KLAS-KSFO

UAL842 :: KLAS-KSFO

FLIGHT INFORMATION

Flight Status: Arrived
Operator:
United Airlines
More flights by this operator :: More flights under this callsign
Pilot: Jac C. (16067)
Aircraft: BOEING 737-800
(B738)
More flights by this aircraft type
Origin: KLAS McCarran Intl
United States
Destination: KSFO San Francisco Intl
United States
More flights between these airports :: More routes between these airports
Route: SHEAD1 KENNO RUSME DYAMD3
File this flight plan on PilotEdge
Remarks:
Altitude:
(Current/Filed)
36,000ft
Speed:
(Current/Filed)
440kts
Departed: 03-Mar-18 10:41 AM
Arrived: 03-Mar-18 11:55 AM
Distance/Time
Traveled:
359nm/1:14
Distance/Time
To Go:
Arrived

Flight Plot

Page will automatically refresh every two minutes.

Flight plan parsing failed; only flown route is shown


Map Options




Map Legend


Flown Route
Filed Route
Departure Airport
Arrival Airport
Navaid (VOR, NDB)
Fix

Horizontal Profiles

Position Reports

Time Latitude Longitude Heading Altitude Ground
Speed
03-Mar-18 10:03 36.082952 -115.138746 226 2064ft 0kts
03-Mar-18 10:04 36.082952 -115.138746 226 2064ft 0kts
03-Mar-18 10:05 36.082952 -115.138746 226 2064ft 0kts
03-Mar-18 10:06 36.082952 -115.138746 226 2064ft 0kts
03-Mar-18 10:07 36.082952 -115.138746 226 2064ft 0kts
03-Mar-18 10:08 36.082952 -115.138746 226 2064ft 0kts
03-Mar-18 10:09 36.082952 -115.138746 226 2064ft 0kts
03-Mar-18 10:10 36.082952 -115.138746 226 2064ft 0kts
03-Mar-18 10:11 36.082952 -115.138746 226 2064ft 0kts
03-Mar-18 10:12 36.082952 -115.138746 226 2064ft 0kts
03-Mar-18 10:13 36.082952 -115.138746 226 2064ft 0kts
03-Mar-18 10:14 36.082952 -115.138746 226 2064ft 0kts
03-Mar-18 10:15 36.082952 -115.138746 226 2064ft 0kts
03-Mar-18 10:16 36.082952 -115.138746 226 2064ft 0kts
03-Mar-18 10:17 36.082952 -115.138746 226 2064ft 0kts
03-Mar-18 10:18 36.082952 -115.138746 226 2064ft 0kts
03-Mar-18 10:19 36.082952 -115.138746 226 2064ft 0kts
03-Mar-18 10:20 36.082952 -115.138746 226 2064ft 0kts
03-Mar-18 10:21 36.082952 -115.138746 226 2064ft 0kts
03-Mar-18 10:22 36.082952 -115.138746 226 2064ft 0kts
03-Mar-18 10:23 36.082952 -115.138746 226 2064ft 0kts
03-Mar-18 10:24 36.082952 -115.138746 226 2064ft 0kts
03-Mar-18 10:25 36.082952 -115.138746 226 2064ft 0kts
03-Mar-18 10:26 36.082952 -115.138746 226 2064ft 0kts
03-Mar-18 10:27 36.082952 -115.138746 226 2064ft 0kts
03-Mar-18 10:28 36.082952 -115.138746 226 2064ft 0kts
03-Mar-18 10:29 36.083278 -115.138501 193 2062ft 2kts
03-Mar-18 10:30 36.083877 -115.138513 182 2061ft 2kts
03-Mar-18 10:31 36.084213 -115.138072 270 2059ft 1kts
03-Mar-18 10:32 36.084211 -115.138007 269 2059ft 0kts
03-Mar-18 10:33 36.084212 -115.138008 269 2059ft 0kts
03-Mar-18 10:34 36.084194 -115.140030 267 2066ft 10kts
03-Mar-18 10:35 36.083388 -115.141533 225 2071ft 0kts
03-Mar-18 10:36 36.083385 -115.141537 225 2071ft 0kts
03-Mar-18 10:37 36.083385 -115.141537 225 2071ft 0kts
03-Mar-18 10:38 36.082606 -115.142387 206 2075ft 4kts
03-Mar-18 10:39 36.079890 -115.142487 179 2083ft 12kts
03-Mar-18 10:40 36.078778 -115.142481 179 2085ft 1kts
03-Mar-18 10:41 36.078248 -115.139168 89 2076ft 19kts
03-Mar-18 10:42 36.078264 -115.131979 89 2055ft 19kts
03-Mar-18 10:43 36.078259 -115.126840 90 2042ft 15kts
03-Mar-18 10:44 36.077842 -115.122110 130 2036ft 10kts
03-Mar-18 10:45 36.077365 -115.121442 147 2037ft 0kts
03-Mar-18 10:46 36.077365 -115.121442 147 2037ft 0kts
03-Mar-18 10:47 36.076987 -115.121325 175 2037ft 8kts
03-Mar-18 10:48 36.076278 -115.132258 268 2058ft 104kts
03-Mar-18 10:49 36.077064 -115.187456 262 3722ft 192kts
03-Mar-18 10:50 36.071145 -115.257405 246 6054ft 226kts
03-Mar-18 10:51 36.012412 -115.294002 189 6996ft 267kts
03-Mar-18 10:52 35.949611 -115.332309 219 8089ft 258kts
03-Mar-18 10:53 35.897029 -115.393515 234 9540ft 270kts
03-Mar-18 10:54 35.887667 -115.488460 268 11382ft 310kts
03-Mar-18 10:55 35.889486 -115.593066 268 15012ft 299kts
03-Mar-18 10:56 35.891093 -115.683472 268 17521ft 309kts
03-Mar-18 10:57 35.892768 -115.784203 267 20103ft 317kts
03-Mar-18 10:58 35.894493 -115.891180 266 22490ft 325kts
03-Mar-18 10:59 35.918607 -115.997775 305 24527ft 366kts
03-Mar-18 11:00 35.993808 -116.084023 308 26312ft 381kts
03-Mar-18 11:01 36.071951 -116.173872 307 27969ft 392kts
03-Mar-18 11:02 36.150259 -116.264319 307 29582ft 397kts
03-Mar-18 11:03 36.230229 -116.356979 307 31345ft 393kts
03-Mar-18 11:04 36.296091 -116.433525 307 32663ft 390kts
03-Mar-18 11:05 36.373829 -116.524111 308 34050ft 386kts
03-Mar-18 11:06 36.463849 -116.629334 308 35347ft 384kts
03-Mar-18 11:07 36.539943 -116.718686 307 35924ft 396kts
03-Mar-18 11:08 36.633821 -116.801661 320 35925ft 436kts
03-Mar-18 11:09 36.738378 -116.880443 320 35915ft 440kts
03-Mar-18 11:10 36.824913 -116.946329 320 35916ft 440kts
03-Mar-18 11:11 36.928957 -117.025858 320 35916ft 440kts
03-Mar-18 11:12 37.050336 -117.118981 320 35916ft 440kts
03-Mar-18 11:13 37.135804 -117.184767 320 35905ft 440kts
03-Mar-18 11:14 37.239293 -117.264658 320 35907ft 439kts
03-Mar-18 11:15 37.337669 -117.351504 311 35915ft 429kts
03-Mar-18 11:16 37.427881 -117.448875 311 35907ft 429kts
03-Mar-18 11:17 37.492392 -117.564040 273 35914ft 394kts
03-Mar-18 11:18 37.508157 -117.697757 271 35919ft 393kts
03-Mar-18 11:19 37.519831 -117.833608 270 35903ft 406kts
03-Mar-18 11:20 37.531067 -117.972508 270 35833ft 403kts
03-Mar-18 11:21 37.542179 -118.112932 270 35831ft 403kts
03-Mar-18 11:22 37.552899 -118.250578 270 35830ft 403kts
03-Mar-18 11:23 37.563356 -118.386911 270 35844ft 401kts
03-Mar-18 11:24 37.573827 -118.525651 270 35826ft 402kts
03-Mar-18 11:25 37.584026 -118.662976 270 35890ft 401kts
03-Mar-18 11:26 37.593255 -118.790047 270 35915ft 400kts
03-Mar-18 11:27 37.603177 -118.927984 270 35915ft 400kts
03-Mar-18 11:28 37.612936 -119.065825 270 35913ft 399kts
03-Mar-18 11:29 37.622566 -119.204134 270 35912ft 399kts
03-Mar-18 11:30 37.632002 -119.342007 270 35910ft 399kts
03-Mar-18 11:31 37.641111 -119.477418 270 35909ft 398kts
03-Mar-18 11:32 37.650150 -119.614131 270 35907ft 398kts
03-Mar-18 11:33 37.658366 -119.741502 269 35892ft 396kts
03-Mar-18 11:34 37.666873 -119.874413 269 35914ft 371kts
03-Mar-18 11:35 37.674430 -119.994953 269 35076ft 348kts
03-Mar-18 11:36 37.681901 -120.116083 268 33358ft 350kts
03-Mar-18 11:37 37.689158 -120.235491 267 31668ft 350kts
03-Mar-18 11:38 37.696368 -120.356101 266 29959ft 351kts
03-Mar-18 11:39 37.691296 -120.475851 255 28242ft 345kts
03-Mar-18 11:40 37.677391 -120.592362 256 26582ft 336kts
03-Mar-18 11:41 37.664731 -120.699130 256 25062ft 330kts
03-Mar-18 11:42 37.652320 -120.802869 257 23577ft 325kts
03-Mar-18 11:43 37.639230 -120.911318 258 22025ft 324kts
03-Mar-18 11:44 37.625227 -121.021334 258 20448ft 323kts
03-Mar-18 11:45 37.610445 -121.131738 259 18865ft 324kts
03-Mar-18 11:46 37.595495 -121.242798 259 17134ft 323kts
03-Mar-18 11:47 37.582526 -121.351478 261 15605ft 315kts
03-Mar-18 11:48 37.570338 -121.457477 261 14087ft 309kts
03-Mar-18 11:49 37.558178 -121.562000 261 12588ft 296kts
03-Mar-18 11:50 37.543093 -121.658896 252 11170ft 282kts
03-Mar-18 11:51 37.521196 -121.749094 252 9843ft 269kts
03-Mar-18 11:52 37.500404 -121.835732 251 8540ft 246kts
03-Mar-18 11:53 37.497145 -121.922054 278 7234ft 264kts
03-Mar-18 11:54 37.509535 -122.004899 278 5908ft 240kts
03-Mar-18 11:55 37.518126 -122.082958 275 4622ft 202kts
03-Mar-18 11:56 37.525531 -122.150887 284 3643ft 192kts
03-Mar-18 11:57 37.548614 -122.208425 295 2695ft 182kts
03-Mar-18 11:58 37.569712 -122.258463 293 1769ft 149kts
03-Mar-18 11:59 37.588151 -122.302623 294 1022ft 149kts
03-Mar-18 12:00 37.606538 -122.345948 295 287ft 143kts
03-Mar-18 12:01 37.620753 -122.379936 295 17ft 53kts
03-Mar-18 12:02 37.621378 -122.383052 219 16ft 8kts
03-Mar-18 12:03 37.620216 -122.383230 130 16ft 9kts
03-Mar-18 12:04 37.618905 -122.382504 257 16ft 2kts
03-Mar-18 12:05 37.619190 -122.383542 290 16ft 0kts
03-Mar-18 12:06 37.619190 -122.383542 290 16ft 0kts
03-Mar-18 12:07 37.619190 -122.383542 290 16ft 0kts
03-Mar-18 12:08 37.619190 -122.383542 290 16ft 0kts
03-Mar-18 12:09 37.619190 -122.383542 290 16ft 0kts
03-Mar-18 12:10 37.619190 -122.383542 290 16ft 0kts
03-Mar-18 12:11 37.619190 -122.383542 290 16ft 0kts

Navigation Log

Ident Type
Flight plan parsing failed, navigation log unavailable